sensor_id;sensor_type;location;lat;lon;timestamp;temperature;humidity
45115;DHT22;30877;43.706;10.780;2023-07-29T00:00:11;25.60;96.70
45115;DHT22;30877;43.706;10.780;2023-07-29T00:02:41;25.60;96.70
45115;DHT22;30877;43.706;10.780;2023-07-29T00:05:09;25.70;96.70
45115;DHT22;30877;43.706;10.780;2023-07-29T00:07:37;25.70;96.70
45115;DHT22;30877;43.706;10.780;2023-07-29T00:10:08;25.70;96.70
45115;DHT22;30877;43.706;10.780;2023-07-29T00:12:36;25.60;96.70
45115;DHT22;30877;43.706;10.780;2023-07-29T00:15:04;25.60;96.70
45115;DHT22;30877;43.706;10.780;2023-07-29T00:17:32;25.60;96.70
45115;DHT22;30877;43.706;10.780;2023-07-29T00:20:00;25.80;96.70
45115;DHT22;30877;43.706;10.780;2023-07-29T00:22:29;25.80;96.70
45115;DHT22;30877;43.706;10.780;2023-07-29T00:25:03;25.80;96.70
45115;DHT22;30877;43.706;10.780;2023-07-29T00:27:34;25.70;96.70
45115;DHT22;30877;43.706;10.780;2023-07-29T00:30:02;25.70;96.70
45115;DHT22;30877;43.706;10.780;2023-07-29T00:32:30;25.70;96.70
45115;DHT22;30877;43.706;10.780;2023-07-29T00:34:58;25.70;96.70
45115;DHT22;30877;43.706;10.780;2023-07-29T00:37:30;25.60;96.70
45115;DHT22;30877;43.706;10.780;2023-07-29T00:39:58;25.60;96.70
45115;DHT22;30877;43.706;10.780;2023-07-29T00:42:26;25.60;96.70
45115;DHT22;30877;43.706;10.780;2023-07-29T00:44:56;25.60;96.70
45115;DHT22;30877;43.706;10.780;2023-07-29T00:47:26;25.60;96.70
45115;DHT22;30877;43.706;10.780;2023-07-29T00:49:54;25.50;96.70
45115;DHT22;30877;43.706;10.780;2023-07-29T00:52:22;25.60;96.70
45115;DHT22;30877;43.706;10.780;2023-07-29T00:54:50;25.50;96.70
45115;DHT22;30877;43.706;10.780;2023-07-29T00:57:19;25.50;96.70
45115;DHT22;30877;43.706;10.780;2023-07-29T00:59:48;25.50;96.70
45115;DHT22;30877;43.706;10.780;2023-07-29T01:02:18;25.50;96.70
45115;DHT22;30877;43.706;10.780;2023-07-29T01:04:46;25.40;96.70
45115;DHT22;30877;43.706;10.780;2023-07-29T01:07:23;25.40;96.70
45115;DHT22;30877;43.706;10.780;2023-07-29T01:09:57;25.40;96.70
45115;DHT22;30877;43.706;10.780;2023-07-29T01:12:36;25.40;96.70
45115;DHT22;30877;43.706;10.780;2023-07-29T01:15:11;25.30;96.70
45115;DHT22;30877;43.706;10.780;2023-07-29T01:17:43;25.20;96.70
45115;DHT22;30877;43.706;10.780;2023-07-29T01:20:15;25.20;96.70
45115;DHT22;30877;43.706;10.780;2023-07-29T01:22:45;25.10;96.70
45115;DHT22;30877;43.706;10.780;2023-07-29T01:25:14;25.10;96.70
45115;DHT22;30877;43.706;10.780;2023-07-29T01:27:43;25.00;96.70
45115;DHT22;30877;43.706;10.780;2023-07-29T01:30:11;25.00;96.70
45115;DHT22;30877;43.706;10.780;2023-07-29T01:32:47;24.90;96.70
45115;DHT22;30877;43.706;10.780;2023-07-29T01:35:22;24.90;96.70
45115;DHT22;30877;43.706;10.780;2023-07-29T01:37:55;24.90;96.70
45115;DHT22;30877;43.706;10.780;2023-07-29T01:40:27;24.90;96.70
45115;DHT22;30877;43.706;10.780;2023-07-29T01:42:56;24.90;96.70
45115;DHT22;30877;43.706;10.780;2023-07-29T01:45:24;24.90;96.70
45115;DHT22;30877;43.706;10.780;2023-07-29T01:47:55;24.90;96.70
45115;DHT22;30877;43.706;10.780;2023-07-29T01:50:23;24.80;96.70
45115;DHT22;30877;43.706;10.780;2023-07-29T01:52:51;24.80;96.70
45115;DHT22;30877;43.706;10.780;2023-07-29T01:55:19;24.80;96.70
45115;DHT22;30877;43.706;10.780;2023-07-29T01:57:50;24.70;96.70
45115;DHT22;30877;43.706;10.780;2023-07-29T02:00:19;24.80;96.70
45115;DHT22;30877;43.706;10.780;2023-07-29T02:02:47;24.70;96.70
45115;DHT22;30877;43.706;10.780;2023-07-29T02:05:15;24.70;96.70
45115;DHT22;30877;43.706;10.780;2023-07-29T02:07:43;24.60;96.70
45115;DHT22;30877;43.706;10.780;2023-07-29T02:10:11;24.60;96.70
45115;DHT22;30877;43.706;10.780;2023-07-29T02:12:39;24.60;96.70
45115;DHT22;30877;43.706;10.780;2023-07-29T02:15:09;24.60;96.70
45115;DHT22;30877;43.706;10.780;2023-07-29T02:17:38;24.60;96.70
45115;DHT22;30877;43.706;10.780;2023-07-29T02:20:06;24.60;96.70
45115;DHT22;30877;43.706;10.780;2023-07-29T02:22:35;24.50;96.70
45115;DHT22;30877;43.706;10.780;2023-07-29T02:25:03;24.50;96.70
45115;DHT22;30877;43.706;10.780;2023-07-29T02:27:32;24.40;96.70
45115;DHT22;30877;43.706;10.780;2023-07-29T02:30:01;24.40;96.70
45115;DHT22;30877;43.706;10.780;2023-07-29T02:32:30;24.40;96.70
45115;DHT22;30877;43.706;10.780;2023-07-29T02:34:59;24.40;96.70
45115;DHT22;30877;43.706;10.780;2023-07-29T02:37:27;24.40;96.70
45115;DHT22;30877;43.706;10.780;2023-07-29T02:39:55;24.30;96.70
45115;DHT22;30877;43.706;10.780;2023-07-29T02:42:23;24.30;96.70
45115;DHT22;30877;43.706;10.780;2023-07-29T02:44:51;24.30;96.70
45115;DHT22;30877;43.706;10.780;2023-07-29T02:47:19;24.30;96.70
45115;DHT22;30877;43.706;10.780;2023-07-29T02:49:48;24.30;96.70
45115;DHT22;30877;43.706;10.780;2023-07-29T02:52:16;24.30;96.70
45115;DHT22;30877;43.706;10.780;2023-07-29T02:54:44;24.30;96.70
45115;DHT22;30877;43.706;10.780;2023-07-29T02:57:13;24.30;96.70
45115;DHT22;30877;43.706;10.780;2023-07-29T02:59:41;24.20;96.70
45115;DHT22;30877;43.706;10.780;2023-07-29T03:02:09;24.20;96.70
45115;DHT22;30877;43.706;10.780;2023-07-29T03:04:37;24.20;96.70
45115;DHT22;30877;43.706;10.780;2023-07-29T03:07:07;24.10;96.70
45115;DHT22;30877;43.706;10.780;2023-07-29T03:09:35;24.00;96.70
45115;DHT22;30877;43.706;10.780;2023-07-29T03:12:04;24.00;96.70
45115;DHT22;30877;43.706;10.780;2023-07-29T03:14:32;24.00;96.70
45115;DHT22;30877;43.706;10.780;2023-07-29T03:17:02;24.00;96.70
45115;DHT22;30877;43.706;10.780;2023-07-29T03:19:32;24.10;96.70
45115;DHT22;30877;43.706;10.780;2023-07-29T03:22:00;24.10;96.70
45115;DHT22;30877;43.706;10.780;2023-07-29T03:24:29;24.00;96.70
45115;DHT22;30877;43.706;10.780;2023-07-29T03:26:57;24.10;96.70
45115;DHT22;30877;43.706;10.780;2023-07-29T03:29:25;24.10;96.70
45115;DHT22;30877;43.706;10.780;2023-07-29T03:31:54;24.10;96.70
45115;DHT22;30877;43.706;10.780;2023-07-29T03:34:22;24.00;96.70
45115;DHT22;30877;43.706;10.780;2023-07-29T03:36:51;23.90;96.70
45115;DHT22;30877;43.706;10.780;2023-07-29T03:39:19;24.10;96.70
45115;DHT22;30877;43.706;10.780;2023-07-29T03:41:49;24.10;96.70
45115;DHT22;30877;43.706;10.780;2023-07-29T03:44:17;24.00;96.70
45115;DHT22;30877;43.706;10.780;2023-07-29T03:46:46;23.90;96.70
45115;DHT22;30877;43.706;10.780;2023-07-29T03:49:14;23.90;96.70
45115;DHT22;30877;43.706;10.780;2023-07-29T03:51:42;23.90;96.70
45115;DHT22;30877;43.706;10.780;2023-07-29T03:54:10;24.00;96.70
45115;DHT22;30877;43.706;10.780;2023-07-29T03:56:38;24.00;96.70
45115;DHT22;30877;43.706;10.780;2023-07-29T03:59:08;24.00;96.70
45115;DHT22;30877;43.706;10.780;2023-07-29T04:01:36;23.90;96.70
45115;DHT22;30877;43.706;10.780;2023-07-29T04:04:04;23.80;96.70
45115;DHT22;30877;43.706;10.780;2023-07-29T04:06:32;23.80;96.70
45115;DHT22;30877;43.706;10.780;2023-07-29T04:09:01;23.80;96.70
45115;DHT22;30877;43.706;10.780;2023-07-29T04:11:29;23.90;96.70
45115;DHT22;30877;43.706;10.780;2023-07-29T04:13:57;23.90;96.70
45115;DHT22;30877;43.706;10.780;2023-07-29T04:16:26;23.90;96.70
45115;DHT22;30877;43.706;10.780;2023-07-29T04:18:56;23.90;96.70
45115;DHT22;30877;43.706;10.780;2023-07-29T04:21:24;23.80;96.70
45115;DHT22;30877;43.706;10.780;2023-07-29T04:23:52;23.80;96.70
45115;DHT22;30877;43.706;10.780;2023-07-29T04:26:20;23.80;96.70
45115;DHT22;30877;43.706;10.780;2023-07-29T04:28:48;23.80;96.70
45115;DHT22;30877;43.706;10.780;2023-07-29T04:31:16;23.70;96.70
45115;DHT22;30877;43.706;10.780;2023-07-29T04:33:45;23.70;96.70
45115;DHT22;30877;43.706;10.780;2023-07-29T04:36:13;23.80;96.70
45115;DHT22;30877;43.706;10.780;2023-07-29T04:38:44;23.90;96.70
45115;DHT22;30877;43.706;10.780;2023-07-29T04:41:12;24.00;96.70
45115;DHT22;30877;43.706;10.780;2023-07-29T04:43:41;24.00;96.70
45115;DHT22;30877;43.706;10.780;2023-07-29T04:46:09;23.90;96.70
45115;DHT22;30877;43.706;10.780;2023-07-29T04:48:37;24.00;96.70
45115;DHT22;30877;43.706;10.780;2023-07-29T04:51:07;24.00;96.70
45115;DHT22;30877;43.706;10.780;2023-07-29T04:53:35;24.00;96.70
45115;DHT22;30877;43.706;10.780;2023-07-29T04:56:04;24.00;96.70
45115;DHT22;30877;43.706;10.780;2023-07-29T04:58:32;24.10;96.70
45115;DHT22;30877;43.706;10.780;2023-07-29T05:01:03;24.00;96.70
45115;DHT22;30877;43.706;10.780;2023-07-29T05:03:31;24.10;96.70
45115;DHT22;30877;43.706;10.780;2023-07-29T05:05:59;24.10;96.70
45115;DHT22;30877;43.706;10.780;2023-07-29T05:08:29;24.00;96.70
45115;DHT22;30877;43.706;10.780;2023-07-29T05:10:58;24.00;96.70
45115;DHT22;30877;43.706;10.780;2023-07-29T05:13:28;24.00;96.70
45115;DHT22;30877;43.706;10.780;2023-07-29T05:15:56;24.10;96.70
45115;DHT22;30877;43.706;10.780;2023-07-29T05:18:24;24.00;96.70
45115;DHT22;30877;43.706;10.780;2023-07-29T05:20:52;24.00;96.70
45115;DHT22;30877;43.706;10.780;2023-07-29T05:23:20;24.10;96.70
45115;DHT22;30877;43.706;10.780;2023-07-29T05:25:50;24.10;96.70
45115;DHT22;30877;43.706;10.780;2023-07-29T05:28:18;24.10;96.70
45115;DHT22;30877;43.706;10.780;2023-07-29T05:30:46;24.10;96.70
45115;DHT22;30877;43.706;10.780;2023-07-29T05:33:14;24.00;96.70
45115;DHT22;30877;43.706;10.780;2023-07-29T05:35:43;24.00;96.70
45115;DHT22;30877;43.706;10.780;2023-07-29T05:38:11;24.10;96.70
45115;DHT22;30877;43.706;10.780;2023-07-29T05:40:38;24.10;96.70
45115;DHT22;30877;43.706;10.780;2023-07-29T05:43:08;24.10;96.70
45115;DHT22;30877;43.706;10.780;2023-07-29T05:45:36;24.30;96.70
45115;DHT22;30877;43.706;10.780;2023-07-29T05:48:04;24.30;96.70
45115;DHT22;30877;43.706;10.780;2023-07-29T05:50:33;24.30;96.70
45115;DHT22;30877;43.706;10.780;2023-07-29T05:53:01;24.50;96.70
45115;DHT22;30877;43.706;10.780;2023-07-29T05:55:29;24.50;96.70
45115;DHT22;30877;43.706;10.780;2023-07-29T05:57:57;24.60;96.70
45115;DHT22;30877;43.706;10.780;2023-07-29T06:00:27;24.60;96.70
45115;DHT22;30877;43.706;10.780;2023-07-29T06:02:55;24.70;96.70
45115;DHT22;30877;43.706;10.780;2023-07-29T06:05:23;24.80;96.70
45115;DHT22;30877;43.706;10.780;2023-07-29T06:07:52;24.80;96.70
45115;DHT22;30877;43.706;10.780;2023-07-29T06:10:20;24.80;96.70
45115;DHT22;30877;43.706;10.780;2023-07-29T06:12:48;24.90;96.70
45115;DHT22;30877;43.706;10.780;2023-07-29T06:15:16;24.90;96.70
45115;DHT22;30877;43.706;10.780;2023-07-29T06:17:46;24.80;96.70
45115;DHT22;30877;43.706;10.780;2023-07-29T06:20:14;24.80;96.70
45115;DHT22;30877;43.706;10.780;2023-07-29T06:22:42;24.80;96.70
45115;DHT22;30877;43.706;10.780;2023-07-29T06:25:10;24.90;96.70
45115;DHT22;30877;43.706;10.780;2023-07-29T06:27:38;24.90;96.70
45115;DHT22;30877;43.706;10.780;2023-07-29T06:30:07;24.90;96.70
45115;DHT22;30877;43.706;10.780;2023-07-29T06:32:35;25.00;96.70
45115;DHT22;30877;43.706;10.780;2023-07-29T06:35:06;25.00;96.70
45115;DHT22;30877;43.706;10.780;2023-07-29T06:37:34;25.10;96.70
45115;DHT22;30877;43.706;10.780;2023-07-29T06:40:02;25.10;96.70
45115;DHT22;30877;43.706;10.780;2023-07-29T06:42:30;25.20;96.70
45115;DHT22;30877;43.706;10.780;2023-07-29T06:44:58;25.30;96.70
45115;DHT22;30877;43.706;10.780;2023-07-29T06:47:27;25.30;96.70
45115;DHT22;30877;43.706;10.780;2023-07-29T06:49:55;25.30;96.70
45115;DHT22;30877;43.706;10.780;2023-07-29T06:52:24;25.30;96.70
45115;DHT22;30877;43.706;10.780;2023-07-29T06:54:52;25.40;96.70
45115;DHT22;30877;43.706;10.780;2023-07-29T06:57:21;25.40;96.70
45115;DHT22;30877;43.706;10.780;2023-07-29T06:59:49;25.50;96.70
45115;DHT22;30877;43.706;10.780;2023-07-29T07:02:17;25.50;96.70
45115;DHT22;30877;43.706;10.780;2023-07-29T07:04:45;25.60;96.70
45115;DHT22;30877;43.706;10.780;2023-07-29T07:07:13;25.70;96.70
45115;DHT22;30877;43.706;10.780;2023-07-29T07:09:43;25.80;96.70
45115;DHT22;30877;43.706;10.780;2023-07-29T07:12:11;25.80;96.70
45115;DHT22;30877;43.706;10.780;2023-07-29T07:14:39;25.80;96.70
45115;DHT22;30877;43.706;10.780;2023-07-29T07:17:07;25.90;96.70
45115;DHT22;30877;43.706;10.780;2023-07-29T07:19:40;25.90;96.70
45115;DHT22;30877;43.706;10.780;2023-07-29T07:22:08;25.90;96.70
45115;DHT22;30877;43.706;10.780;2023-07-29T07:24:36;26.00;96.70
45115;DHT22;30877;43.706;10.780;2023-07-29T07:27:06;26.00;96.70
45115;DHT22;30877;43.706;10.780;2023-07-29T07:29:34;26.00;96.70
45115;DHT22;30877;43.706;10.780;2023-07-29T07:32:03;26.00;96.70
45115;DHT22;30877;43.706;10.780;2023-07-29T07:34:31;26.10;96.70
45115;DHT22;30877;43.706;10.780;2023-07-29T07:37:01;26.30;96.70
45115;DHT22;30877;43.706;10.780;2023-07-29T07:39:29;26.30;96.70
45115;DHT22;30877;43.706;10.780;2023-07-29T07:41:57;26.40;96.70
45115;DHT22;30877;43.706;10.780;2023-07-29T07:44:26;26.40;96.70
45115;DHT22;30877;43.706;10.780;2023-07-29T07:46:55;26.40;96.70
45115;DHT22;30877;43.706;10.780;2023-07-29T07:49:23;26.50;96.70
45115;DHT22;30877;43.706;10.780;2023-07-29T07:51:51;26.50;96.70
45115;DHT22;30877;43.706;10.780;2023-07-29T07:54:19;26.50;96.70
45115;DHT22;30877;43.706;10.780;2023-07-29T07:56:47;26.70;96.70
45115;DHT22;30877;43.706;10.780;2023-07-29T07:59:16;26.80;96.70
45115;DHT22;30877;43.706;10.780;2023-07-29T08:01:46;26.90;96.70
45115;DHT22;30877;43.706;10.780;2023-07-29T08:04:15;26.90;96.70
45115;DHT22;30877;43.706;10.780;2023-07-29T08:06:44;27.00;96.70
45115;DHT22;30877;43.706;10.780;2023-07-29T08:09:13;27.00;96.70
45115;DHT22;30877;43.706;10.780;2023-07-29T08:11:41;27.10;96.70
45115;DHT22;30877;43.706;10.780;2023-07-29T08:14:10;27.20;96.70
45115;DHT22;30877;43.706;10.780;2023-07-29T08:16:39;27.10;96.70
45115;DHT22;30877;43.706;10.780;2023-07-29T08:19:09;27.20;96.70
45115;DHT22;30877;43.706;10.780;2023-07-29T08:21:37;27.20;96.70
45115;DHT22;30877;43.706;10.780;2023-07-29T08:24:06;27.20;96.70
45115;DHT22;30877;43.706;10.780;2023-07-29T08:26:35;27.30;96.70
45115;DHT22;30877;43.706;10.780;2023-07-29T08:29:04;27.40;96.70
45115;DHT22;30877;43.706;10.780;2023-07-29T08:31:32;27.50;96.70
45115;DHT22;30877;43.706;10.780;2023-07-29T08:34:01;27.60;96.70
45115;DHT22;30877;43.706;10.780;2023-07-29T08:36:32;27.60;96.70
45115;DHT22;30877;43.706;10.780;2023-07-29T08:39:00;27.80;96.70
45115;DHT22;30877;43.706;10.780;2023-07-29T08:41:33;27.90;96.70
45115;DHT22;30877;43.706;10.780;2023-07-29T08:44:11;28.10;96.70
45115;DHT22;30877;43.706;10.780;2023-07-29T08:46:43;28.20;96.70
45115;DHT22;30877;43.706;10.780;2023-07-29T08:49:12;28.30;96.70
45115;DHT22;30877;43.706;10.780;2023-07-29T08:51:58;28.30;96.70
45115;DHT22;30877;43.706;10.780;2023-07-29T08:54:27;28.40;96.70
45115;DHT22;30877;43.706;10.780;2023-07-29T08:56:56;28.40;96.70
45115;DHT22;30877;43.706;10.780;2023-07-29T08:59:30;28.50;96.70
45115;DHT22;30877;43.706;10.780;2023-07-29T09:01:58;28.60;96.70
45115;DHT22;30877;43.706;10.780;2023-07-29T09:04:27;28.60;96.70
45115;DHT22;30877;43.706;10.780;2023-07-29T09:06:59;28.60;96.70
45115;DHT22;30877;43.706;10.780;2023-07-29T09:09:31;28.70;96.70
45115;DHT22;30877;43.706;10.780;2023-07-29T09:11:59;28.70;96.70
45115;DHT22;30877;43.706;10.780;2023-07-29T09:14:28;28.70;96.70
45115;DHT22;30877;43.706;10.780;2023-07-29T09:16:56;28.80;96.70
45115;DHT22;30877;43.706;10.780;2023-07-29T09:19:25;28.90;96.70
45115;DHT22;30877;43.706;10.780;2023-07-29T09:21:55;29.00;96.70
45115;DHT22;30877;43.706;10.780;2023-07-29T09:24:25;28.90;96.70
45115;DHT22;30877;43.706;10.780;2023-07-29T09:26:57;28.90;96.70
45115;DHT22;30877;43.706;10.780;2023-07-29T09:29:28;29.10;96.70
45115;DHT22;30877;43.706;10.780;2023-07-29T09:32:18;29.30;96.70
45115;DHT22;30877;43.706;10.780;2023-07-29T09:34:47;29.20;96.70
45115;DHT22;30877;43.706;10.780;2023-07-29T09:37:16;29.20;96.70
45115;DHT22;30877;43.706;10.780;2023-07-29T09:39:47;29.10;96.70
45115;DHT22;30877;43.706;10.780;2023-07-29T09:42:19;29.40;96.70
45115;DHT22;30877;43.706;10.780;2023-07-29T09:44:49;29.60;96.70
45115;DHT22;30877;43.706;10.780;2023-07-29T09:47:22;29.60;96.70
45115;DHT22;30877;43.706;10.780;2023-07-29T09:49:51;29.70;96.70
45115;DHT22;30877;43.706;10.780;2023-07-29T09:52:21;29.70;96.70
45115;DHT22;30877;43.706;10.780;2023-07-29T09:54:52;29.80;96.70
45115;DHT22;30877;43.706;10.780;2023-07-29T09:57:21;29.90;96.70
45115;DHT22;30877;43.706;10.780;2023-07-29T09:59:55;29.90;96.70
45115;DHT22;30877;43.706;10.780;2023-07-29T10:02:26;29.90;96.70
45115;DHT22;30877;43.706;10.780;2023-07-29T10:04:59;30.00;96.70
45115;DHT22;30877;43.706;10.780;2023-07-29T10:07:29;29.80;96.70
45115;DHT22;30877;43.706;10.780;2023-07-29T10:10:00;29.90;96.70
45115;DHT22;30877;43.706;10.780;2023-07-29T10:12:31;29.80;96.70
45115;DHT22;30877;43.706;10.780;2023-07-29T10:15:02;29.80;96.70
45115;DHT22;30877;43.706;10.780;2023-07-29T10:17:33;29.70;96.70
45115;DHT22;30877;43.706;10.780;2023-07-29T10:20:04;29.70;96.70
45115;DHT22;30877;43.706;10.780;2023-07-29T10:22:35;29.80;96.70
45115;DHT22;30877;43.706;10.780;2023-07-29T10:25:09;29.90;96.70
45115;DHT22;30877;43.706;10.780;2023-07-29T10:27:46;29.90;96.70
45115;DHT22;30877;43.706;10.780;2023-07-29T10:30:15;29.90;96.70
45115;DHT22;30877;43.706;10.780;2023-07-29T10:32:44;30.00;96.70
45115;DHT22;30877;43.706;10.780;2023-07-29T10:35:14;30.10;96.70
45115;DHT22;30877;43.706;10.780;2023-07-29T10:37:43;30.00;96.70
45115;DHT22;30877;43.706;10.780;2023-07-29T10:40:14;29.90;96.70
45115;DHT22;30877;43.706;10.780;2023-07-29T10:43:01;30.10;96.70
45115;DHT22;30877;43.706;10.780;2023-07-29T10:45:38;30.30;96.70
45115;DHT22;30877;43.706;10.780;2023-07-29T10:48:10;30.40;96.70
45115;DHT22;30877;43.706;10.780;2023-07-29T10:50:39;30.70;96.70
45115;DHT22;30877;43.706;10.780;2023-07-29T10:53:07;30.90;96.70
45115;DHT22;30877;43.706;10.780;2023-07-29T10:55:38;30.70;96.70
45115;DHT22;30877;43.706;10.780;2023-07-29T10:58:16;30.90;96.70
45115;DHT22;30877;43.706;10.780;2023-07-29T11:00:46;31.00;96.70
45115;DHT22;30877;43.706;10.780;2023-07-29T11:03:14;31.00;96.70
45115;DHT22;30877;43.706;10.780;2023-07-29T11:05:48;31.00;96.70
45115;DHT22;30877;43.706;10.780;2023-07-29T11:08:21;30.90;96.70
45115;DHT22;30877;43.706;10.780;2023-07-29T11:11:03;30.90;96.70
45115;DHT22;30877;43.706;10.780;2023-07-29T11:13:33;31.20;96.70
45115;DHT22;30877;43.706;10.780;2023-07-29T11:16:02;31.40;96.70
45115;DHT22;30877;43.706;10.780;2023-07-29T11:18:32;31.50;96.70
45115;DHT22;30877;43.706;10.780;2023-07-29T11:21:03;31.80;96.70
45115;DHT22;30877;43.706;10.780;2023-07-29T11:23:32;32.00;96.70
45115;DHT22;30877;43.706;10.780;2023-07-29T11:26:03;32.10;96.70
45115;DHT22;30877;43.706;10.780;2023-07-29T11:28:38;32.40;96.70
45115;DHT22;30877;43.706;10.780;2023-07-29T11:31:09;32.40;96.70
45115;DHT22;30877;43.706;10.780;2023-07-29T11:33:39;32.40;96.70
45115;DHT22;30877;43.706;10.780;2023-07-29T11:36:17;32.20;96.70
45115;DHT22;30877;43.706;10.780;2023-07-29T11:38:46;32.10;96.70
45115;DHT22;30877;43.706;10.780;2023-07-29T11:41:19;32.10;96.70
45115;DHT22;30877;43.706;10.780;2023-07-29T11:43:49;32.30;96.70
45115;DHT22;30877;43.706;10.780;2023-07-29T11:46:22;32.20;96.70
45115;DHT22;30877;43.706;10.780;2023-07-29T11:48:50;32.30;96.70
45115;DHT22;30877;43.706;10.780;2023-07-29T11:51:22;32.30;96.70
45115;DHT22;30877;43.706;10.780;2023-07-29T11:53:50;32.50;96.70
45115;DHT22;30877;43.706;10.780;2023-07-29T11:56:21;32.50;96.70
45115;DHT22;30877;43.706;10.780;2023-07-29T11:58:50;32.40;96.70
45115;DHT22;30877;43.706;10.780;2023-07-29T12:01:18;32.50;96.70
45115;DHT22;30877;43.706;10.780;2023-07-29T12:03:47;32.60;96.70
45115;DHT22;30877;43.706;10.780;2023-07-29T12:06:15;32.70;96.70
45115;DHT22;30877;43.706;10.780;2023-07-29T12:08:44;32.50;96.70
45115;DHT22;30877;43.706;10.780;2023-07-29T12:11:13;32.10;96.70
45115;DHT22;30877;43.706;10.780;2023-07-29T12:13:44;32.40;96.70
45115;DHT22;30877;43.706;10.780;2023-07-29T12:16:16;32.40;96.70
45115;DHT22;30877;43.706;10.780;2023-07-29T12:18:50;32.00;96.70
45115;DHT22;30877;43.706;10.780;2023-07-29T12:21:19;32.00;96.70
45115;DHT22;30877;43.706;10.780;2023-07-29T12:23:47;32.10;96.70
45115;DHT22;30877;43.706;10.780;2023-07-29T12:26:18;32.20;96.70
45115;DHT22;30877;43.706;10.780;2023-07-29T12:28:48;32.50;96.70
45115;DHT22;30877;43.706;10.780;2023-07-29T12:31:16;32.50;96.70
45115;DHT22;30877;43.706;10.780;2023-07-29T12:33:44;32.60;96.70
45115;DHT22;30877;43.706;10.780;2023-07-29T12:36:13;32.80;96.70
45115;DHT22;30877;43.706;10.780;2023-07-29T12:38:43;32.70;96.70
45115;DHT22;30877;43.706;10.780;2023-07-29T12:41:12;32.30;96.70
45115;DHT22;30877;43.706;10.780;2023-07-29T12:43:41;32.10;96.70
45115;DHT22;30877;43.706;10.780;2023-07-29T12:46:11;31.80;96.70
45115;DHT22;30877;43.706;10.780;2023-07-29T12:48:39;31.80;96.70
45115;DHT22;30877;43.706;10.780;2023-07-29T12:51:08;32.30;96.70
45115;DHT22;30877;43.706;10.780;2023-07-29T12:53:36;32.10;96.70
45115;DHT22;30877;43.706;10.780;2023-07-29T12:56:05;31.80;96.70
45115;DHT22;30877;43.706;10.780;2023-07-29T12:58:34;32.20;96.70
45115;DHT22;30877;43.706;10.780;2023-07-29T13:01:02;32.40;96.70
45115;DHT22;30877;43.706;10.780;2023-07-29T13:03:33;32.70;96.70
45115;DHT22;30877;43.706;10.780;2023-07-29T13:06:02;32.70;96.70
45115;DHT22;30877;43.706;10.780;2023-07-29T13:08:30;32.50;96.70
45115;DHT22;30877;43.706;10.780;2023-07-29T13:10:59;32.40;96.70
45115;DHT22;30877;43.706;10.780;2023-07-29T13:13:28;32.60;96.70
45115;DHT22;30877;43.706;10.780;2023-07-29T13:15:56;32.50;96.70
45115;DHT22;30877;43.706;10.780;2023-07-29T13:18:29;32.60;96.70
45115;DHT22;30877;43.706;10.780;2023-07-29T13:20:59;32.80;96.70
45115;DHT22;30877;43.706;10.780;2023-07-29T13:23:28;32.90;96.70
45115;DHT22;30877;43.706;10.780;2023-07-29T13:25:57;33.10;96.70
45115;DHT22;30877;43.706;10.780;2023-07-29T13:28:26;33.20;96.70
45115;DHT22;30877;43.706;10.780;2023-07-29T13:30:54;33.30;96.70
45115;DHT22;30877;43.706;10.780;2023-07-29T13:33:23;33.40;96.70
45115;DHT22;30877;43.706;10.780;2023-07-29T13:35:53;33.50;96.70
45115;DHT22;30877;43.706;10.780;2023-07-29T13:38:24;33.40;96.70
45115;DHT22;30877;43.706;10.780;2023-07-29T13:40:53;33.50;96.70
45115;DHT22;30877;43.706;10.780;2023-07-29T13:43:22;33.60;96.70
45115;DHT22;30877;43.706;10.780;2023-07-29T13:45:51;33.60;96.70
45115;DHT22;30877;43.706;10.780;2023-07-29T13:48:21;33.80;96.70
45115;DHT22;30877;43.706;10.780;2023-07-29T13:50:49;33.60;96.70
45115;DHT22;30877;43.706;10.780;2023-07-29T13:53:19;33.80;96.70
45115;DHT22;30877;43.706;10.780;2023-07-29T13:55:50;33.90;96.70
45115;DHT22;30877;43.706;10.780;2023-07-29T13:58:20;34.00;96.70
45115;DHT22;30877;43.706;10.780;2023-07-29T14:00:50;34.10;96.70
45115;DHT22;30877;43.706;10.780;2023-07-29T14:03:20;34.10;96.70
45115;DHT22;30877;43.706;10.780;2023-07-29T14:05:50;34.10;96.70
45115;DHT22;30877;43.706;10.780;2023-07-29T14:08:19;34.20;96.70
45115;DHT22;30877;43.706;10.780;2023-07-29T14:10:53;34.20;96.70
45115;DHT22;30877;43.706;10.780;2023-07-29T14:13:38;34.30;96.70
45115;DHT22;30877;43.706;10.780;2023-07-29T14:16:08;34.30;96.70
45115;DHT22;30877;43.706;10.780;2023-07-29T14:18:37;34.10;96.70
45115;DHT22;30877;43.706;10.780;2023-07-29T14:21:06;34.10;96.70
45115;DHT22;30877;43.706;10.780;2023-07-29T14:23:34;34.20;96.70
45115;DHT22;30877;43.706;10.780;2023-07-29T14:26:04;34.10;96.70
45115;DHT22;30877;43.706;10.780;2023-07-29T14:28:33;34.30;96.70
45115;DHT22;30877;43.706;10.780;2023-07-29T14:31:01;34.40;96.70
45115;DHT22;30877;43.706;10.780;2023-07-29T14:33:29;34.60;96.70
45115;DHT22;30877;43.706;10.780;2023-07-29T14:35:58;34.70;96.70
45115;DHT22;30877;43.706;10.780;2023-07-29T14:38:26;34.90;96.70
45115;DHT22;30877;43.706;10.780;2023-07-29T14:40:57;34.80;96.70
45115;DHT22;30877;43.706;10.780;2023-07-29T14:43:27;35.10;96.70
45115;DHT22;30877;43.706;10.780;2023-07-29T14:45:56;34.80;96.70
45115;DHT22;30877;43.706;10.780;2023-07-29T14:48:24;35.20;96.70
45115;DHT22;30877;43.706;10.780;2023-07-29T14:50:53;35.20;96.70
45115;DHT22;30877;43.706;10.780;2023-07-29T14:53:21;35.30;96.70
45115;DHT22;30877;43.706;10.780;2023-07-29T14:55:50;35.20;96.70
45115;DHT22;30877;43.706;10.780;2023-07-29T14:58:18;35.40;96.70
45115;DHT22;30877;43.706;10.780;2023-07-29T15:00:48;35.50;96.70
45115;DHT22;30877;43.706;10.780;2023-07-29T15:03:17;35.60;96.70
45115;DHT22;30877;43.706;10.780;2023-07-29T15:05:45;35.40;96.70
45115;DHT22;30877;43.706;10.780;2023-07-29T15:08:14;35.50;96.70
45115;DHT22;30877;43.706;10.780;2023-07-29T15:10:45;35.70;96.70
45115;DHT22;30877;43.706;10.780;2023-07-29T15:13:14;35.90;96.70
45115;DHT22;30877;43.706;10.780;2023-07-29T15:15:43;36.30;96.70
45115;DHT22;30877;43.706;10.780;2023-07-29T15:18:13;36.10;96.70
45115;DHT22;30877;43.706;10.780;2023-07-29T15:20:41;36.10;96.70
45115;DHT22;30877;43.706;10.780;2023-07-29T15:23:10;36.40;96.70
45115;DHT22;30877;43.706;10.780;2023-07-29T15:25:39;35.90;96.70
45115;DHT22;30877;43.706;10.780;2023-07-29T15:28:07;36.00;96.70